Etusivu
METAR-TAF:

METAR-TAF

Lentoasemat :

Malmön lentoasema

Malmö, Ruotsi

Leveyspiiri: 55-33N, Pituuspiiri: 013-22E, korkeus merenpinnasta: 106 m

Tämänhetkinen sää

Tämä raportti tehtiin 32 minuuttia sitten, kello 15.50 UTC
Tuuli 3 kn eri suunnista
Lämpötila -1°C
Kosteus 100%
Ilmanpaine 1022 hPa
Näkyvyys: 0100 m
jäätävää sumua

METAR: ESMS 271550Z VRB03KT 0100 R17/0600N R35/0750N FZFG VV002 M01/M01 Q1022

Aika: 17:22 (16:22 UTC)

Sääennuste

Tämä raportti tehtiin 5 tuntia ja 14 minuuttia sitten, kello 11.08 UTC
Ennuste voimassa 27. päivästä klo 12 UTC - 28. päivään klo 12 UTC
Tuuli 4 kn pohjoisesta
Näkyvyys: 0100 m
100 ft:n korkeudessa
jäätävää sumua
Ajoittain
27. päivästä klo 12 UTC - 28. päivään klo 09 UTC
Näkyvyys: 3000 m
Hajonneita pilviä 300 ft:n korkeudessa
utua
Tulossa
28. päivästä klo 09 UTC - 28. päivään klo 11 UTC
Näkyvyys: 5000 m

TAF: ESMS 271108Z 2712/2812 36004KT 0100 FZFG VV001 TEMPO 2712/2809 3000 BR BKN003 BECMG 2809/2811 5000 NSW NSC

Säähavainnot ja -ennusteet yli 4000 lentoasemalta (METAR- ja TAF-raportit).

Käytössä olevat sääasemat on merkitty karttaan keltaisilla ja punaisilla pisteillä.

Aseta hiiri pisteen päälle nähdäksesi sääaseman nimen.

Klikkaa sitten nähdäksesi säähavainnot ja -ennusteet.

Kartan vaihtaminen: klikkaa mustalla rastilla varustettuja vihreitä pisteitä, niin voit zoomata sisään; viivalla varustettua vihreää pistettä, niin voit zoomata ulos tai vihreitä nuolia, niin pääset viereisille kartoille.


METAR-TAF: